Time;durP1;ratioP1;P1;durP2;ratioP2;P2;SDS_P1;SDS_P2;PMS_P1;PMS_P2;Temp;Humidity;BMP_temperature;BMP_pressure;BME280_temperature;BME280_humidity;BME280_pressure;Samples;Min_cycle;Max_cycle;Signal;HPM_P1;HPM_P2
2024/01/25 00:02:14;;;;;;;74.45;8.60;;;;;;;;;;5014732;28;20025;-57
2024/01/25 00:04:40;;;;;;;68.68;8.82;;;;;;;;;;5013481;28;20033;-59
2024/01/25 00:07:08;;;;;;;57.55;7.95;;;;;;;;;;5017770;28;20088;-60
2024/01/25 00:09:34;;;;;;;74.82;9.98;;;;;;;;;;5011957;28;20026;-59
2024/01/25 00:12:00;;;;;;;76.63;9.45;;;;;;;;;;5012719;28;20067;-60
2024/01/25 00:14:25;;;;;;;72.65;9.77;;;;;;;;;;5013359;28;20092;-61
2024/01/25 00:16:51;;;;;;;89.03;12.43;;;;;;;;;;5011933;28;20033;-59
2024/01/25 00:19:17;;;;;;;72.00;10.55;;;;;;;;;;5012704;28;20117;-59
2024/01/25 00:21:44;;;;;;;70.97;9.82;;;;;;;;;;5013674;28;20534;-59
2024/01/25 00:24:13;;;;;;;63.03;11.13;;;;;;;;;;5014646;28;20381;-58
2024/01/25 00:26:39;;;;;;;69.15;10.43;;;;;;;;;;5013135;28;20385;-58
2024/01/25 00:29:05;;;;;;;69.78;10.82;;;;;;;;;;5012944;28;20038;-57
2024/01/25 00:31:31;;;;;;;65.60;9.02;;;;;;;;;;5012731;28;20113;-56
2024/01/25 00:33:58;;;;;;;73.60;10.55;;;;;;;;;;5010710;28;20109;-61
2024/01/25 00:36:24;;;;;;;44.70;8.32;;;;;;;;;;5014244;28;20543;-55
2024/01/25 00:38:50;;;;;;;95.63;10.32;;;;;;;;;;5021075;28;20045;-59
2024/01/25 00:41:19;;;;;;;63.22;9.85;;;;;;;;;;5018040;28;20026;-56
2024/01/25 00:43:45;;;;;;;53.13;9.10;;;;;;;;;;5011378;28;20028;-59
2024/01/25 00:46:11;;;;;;;62.78;9.77;;;;;;;;;;5015136;28;20030;-59
2024/01/25 00:48:37;;;;;;;70.25;10.35;;;;;;;;;;5008753;28;20077;-58
2024/01/25 00:51:05;;;;;;;78.75;10.40;;;;;;;;;;5018679;28;20091;-59
2024/01/25 00:53:32;;;;;;;56.38;7.70;;;;;;;;;;5012370;28;20680;-57
2024/01/25 00:55:58;;;;;;;74.93;9.48;;;;;;;;;;5017652;28;20022;-60
2024/01/25 00:58:24;;;;;;;66.15;9.65;;;;;;;;;;5017179;28;20404;-59
2024/01/25 01:00:51;;;;;;;67.20;8.32;;;;;;;;;;5015369;28;20395;-59
2024/01/25 01:03:19;;;;;;;54.78;8.95;;;;;;;;;;5013987;28;20029;-58
2024/01/25 01:05:45;;;;;;;58.78;8.85;;;;;;;;;;5017043;28;20117;-59
2024/01/25 01:08:11;;;;;;;70.15;8.65;;;;;;;;;;5014722;28;20054;-60
2024/01/25 01:10:37;;;;;;;52.30;7.93;;;;;;;;;;5018787;28;20025;-60
2024/01/25 01:13:03;;;;;;;78.18;9.65;;;;;;;;;;5020837;28;20033;-59
2024/01/25 01:15:29;;;;;;;60.60;8.30;;;;;;;;;;5016529;28;20076;-60
2024/01/25 01:17:55;;;;;;;67.30;9.73;;;;;;;;;;5022011;28;20041;-60
2024/01/25 01:20:21;;;;;;;61.55;8.43;;;;;;;;;;5022693;28;20040;-57
2024/01/25 01:22:47;;;;;;;55.90;7.95;;;;;;;;;;5015565;28;20467;-58
2024/01/25 01:25:13;;;;;;;71.90;8.02;;;;;;;;;;5013507;28;20034;-58
2024/01/25 01:27:39;;;;;;;62.38;8.48;;;;;;;;;;5016377;28;20163;-55
2024/01/25 01:30:07;;;;;;;69.53;8.73;;;;;;;;;;5016108;28;20483;-58
2024/01/25 01:32:33;;;;;;;69.15;9.60;;;;;;;;;;5013372;28;20026;-58
2024/01/25 01:34:59;;;;;;;69.18;8.18;;;;;;;;;;5015223;28;20140;-56
2024/01/25 01:37:25;;;;;;;71.70;8.80;;;;;;;;;;5018018;28;20053;-59
2024/01/25 01:39:52;;;;;;;68.13;8.15;;;;;;;;;;5010638;28;20416;-58
2024/01/25 01:42:18;;;;;;;65.72;8.32;;;;;;;;;;5023487;28;20041;-57
2024/01/25 01:44:44;;;;;;;73.05;8.90;;;;;;;;;;5015310;28;20042;-61
2024/01/25 01:47:10;;;;;;;62.05;10.48;;;;;;;;;;5016024;28;20037;-56
2024/01/25 01:49:36;;;;;;;59.40;7.80;;;;;;;;;;5013277;28;20041;-58
2024/01/25 01:52:02;;;;;;;64.40;8.45;;;;;;;;;;5016425;28;20026;-55
2024/01/25 01:54:28;;;;;;;69.70;8.55;;;;;;;;;;5023161;28;20033;-59
2024/01/25 01:56:55;;;;;;;73.75;9.85;;;;;;;;;;5018977;28;20033;-59
2024/01/25 01:59:21;;;;;;;53.28;8.57;;;;;;;;;;5018487;28;20044;-58
2024/01/25 02:01:47;;;;;;;64.07;10.00;;;;;;;;;;5016973;28;20057;-57
2024/01/25 02:04:13;;;;;;;69.05;9.15;;;;;;;;;;5017134;28;20120;-59
2024/01/25 02:06:39;;;;;;;55.20;8.27;;;;;;;;;;5016167;28;20030;-60
2024/01/25 02:09:05;;;;;;;55.65;8.13;;;;;;;;;;5017986;28;20164;-56
2024/01/25 02:11:31;;;;;;;66.65;7.57;;;;;;;;;;5014653;28;20109;-58
2024/01/25 02:13:57;;;;;;;67.55;8.35;;;;;;;;;;5016148;28;20532;-61
2024/01/25 02:16:23;;;;;;;73.80;9.10;;;;;;;;;;5017207;28;20508;-61
2024/01/25 02:18:49;;;;;;;61.92;7.70;;;;;;;;;;5011844;28;20503;-58
2024/01/25 02:21:15;;;;;;;73.97;9.88;;;;;;;;;;5018548;28;20022;-60
2024/01/25 02:23:41;;;;;;;62.97;8.68;;;;;;;;;;5017270;28;20025;-59
2024/01/25 02:26:07;;;;;;;54.97;9.07;;;;;;;;;;5017984;28;20041;-58
2024/01/25 02:28:34;;;;;;;59.28;8.85;;;;;;;;;;5014413;28;20052;-58
2024/01/25 02:31:00;;;;;;;66.05;9.18;;;;;;;;;;5014251;28;20116;-55
2024/01/25 02:33:26;;;;;;;63.13;8.82;;;;;;;;;;5016531;28;20035;-57
2024/01/25 02:35:52;;;;;;;77.93;9.18;;;;;;;;;;5020714;28;20119;-57
2024/01/25 02:38:18;;;;;;;61.08;8.40;;;;;;;;;;5016846;28;20025;-56
2024/01/25 02:40:44;;;;;;;76.32;8.65;;;;;;;;;;5016529;28;20026;-60
2024/01/25 02:43:10;;;;;;;73.70;9.48;;;;;;;;;;5014635;28;20444;-58
2024/01/25 02:45:36;;;;;;;78.72;9.00;;;;;;;;;;5015006;28;20030;-60
2024/01/25 02:48:03;;;;;;;62.72;7.90;;;;;;;;;;5012851;28;20033;-58
2024/01/25 02:50:29;;;;;;;75.15;9.75;;;;;;;;;;5012381;28;20037;-60
2024/01/25 02:52:55;;;;;;;78.82;9.40;;;;;;;;;;5015807;28;20038;-62
2024/01/25 02:55:21;;;;;;;65.80;9.52;;;;;;;;;;5017286;28;20030;-61
2024/01/25 02:57:47;;;;;;;77.90;9.98;;;;;;;;;;5015942;28;20026;-59
2024/01/25 03:00:13;;;;;;;61.33;8.73;;;;;;;;;;5022058;28;20345;-57
2024/01/25 03:02:39;;;;;;;79.47;9.80;;;;;;;;;;5012959;28;20030;-61
2024/01/25 03:05:05;;;;;;;64.22;8.98;;;;;;;;;;5015419;28;20022;-61
2024/01/25 03:07:31;;;;;;;60.88;8.05;;;;;;;;;;5010626;28;20512;-60
2024/01/25 03:09:57;;;;;;;78.18;10.07;;;;;;;;;;5015068;28;20081;-57
2024/01/25 03:12:23;;;;;;;78.07;9.32;;;;;;;;;;5013822;28;20026;-57
2024/01/25 03:14:49;;;;;;;70.97;9.05;;;;;;;;;;5010732;28;20033;-58
2024/01/25 03:17:15;;;;;;;67.72;10.20;;;;;;;;;;5012600;28;20033;-58
2024/01/25 03:19:41;;;;;;;66.95;10.38;;;;;;;;;;5009110;28;20049;-55
2024/01/25 03:22:07;;;;;;;97.20;9.93;;;;;;;;;;5009296;28;20034;-56
2024/01/25 03:24:33;;;;;;;75.85;10.52;;;;;;;;;;5010822;28;20036;-59
2024/01/25 03:26:59;;;;;;;59.83;8.63;;;;;;;;;;5011819;28;20105;-59
2024/01/25 03:29:25;;;;;;;61.20;8.55;;;;;;;;;;5021262;28;20060;-59
2024/01/25 03:31:51;;;;;;;70.72;10.02;;;;;;;;;;5016624;28;20030;-58
2024/01/25 03:34:17;;;;;;;66.00;10.52;;;;;;;;;;5015966;28;20068;-59
2024/01/25 03:36:43;;;;;;;94.53;10.20;;;;;;;;;;5017429;28;20057;-60
2024/01/25 03:39:09;;;;;;;51.47;8.32;;;;;;;;;;5014738;28;20034;-58
2024/01/25 03:41:35;;;;;;;86.38;11.00;;;;;;;;;;5015773;28;20092;-60
2024/01/25 03:44:01;;;;;;;73.82;9.18;;;;;;;;;;5010111;28;20057;-58
2024/01/25 03:46:27;;;;;;;58.10;9.98;;;;;;;;;;5015999;28;20377;-59
2024/01/25 03:48:54;;;;;;;60.70;9.77;;;;;;;;;;5011456;28;20033;-56
2024/01/25 03:51:20;;;;;;;73.97;9.45;;;;;;;;;;5016494;28;20403;-58
2024/01/25 03:53:46;;;;;;;68.28;8.95;;;;;;;;;;5014023;28;20073;-55
2024/01/25 03:56:18;;;;;;;54.20;9.02;;;;;;;;;;5016753;28;20040;-58
2024/01/25 03:58:46;;;;;;;68.07;9.57;;;;;;;;;;5013046;28;20033;-57
2024/01/25 04:01:12;;;;;;;63.90;10.35;;;;;;;;;;5013583;28;20080;-56
2024/01/25 04:03:38;;;;;;;64.78;9.60;;;;;;;;;;5009575;28;20030;-58
2024/01/25 04:06:04;;;;;;;66.43;9.00;;;;;;;;;;5023742;28;20040;-59
2024/01/25 04:08:30;;;;;;;89.13;10.85;;;;;;;;;;5013920;28;20056;-60
2024/01/25 04:10:56;;;;;;;71.47;8.93;;;;;;;;;;5015190;28;20026;-58
2024/01/25 04:13:22;;;;;;;66.18;8.95;;;;;;;;;;5018477;28;20029;-59
2024/01/25 04:15:48;;;;;;;59.25;10.98;;;;;;;;;;5015346;28;20034;-60
2024/01/25 04:18:14;;;;;;;81.70;11.90;;;;;;;;;;5014026;28;20080;-58
2024/01/25 04:20:40;;;;;;;77.53;9.02;;;;;;;;;;5015198;28;20105;-60
2024/01/25 04:23:06;;;;;;;68.70;9.88;;;;;;;;;;5017086;28;20030;-60
2024/01/25 04:25:32;;;;;;;68.03;10.32;;;;;;;;;;5014956;28;20450;-58
2024/01/25 04:27:58;;;;;;;79.57;10.48;;;;;;;;;;5020131;28;20021;-59
2024/01/25 04:30:24;;;;;;;67.30;9.82;;;;;;;;;;5020731;28;20037;-60
2024/01/25 04:32:50;;;;;;;78.13;10.88;;;;;;;;;;5018773;28;20025;-61
2024/01/25 04:35:16;;;;;;;78.45;9.98;;;;;;;;;;5018865;28;20104;-61
2024/01/25 04:37:42;;;;;;;73.13;11.75;;;;;;;;;;5016392;28;20443;-60
2024/01/25 04:40:08;;;;;;;76.47;10.13;;;;;;;;;;5020423;28;20488;-60
2024/01/25 04:42:34;;;;;;;60.75;10.05;;;;;;;;;;5019765;28;20121;-58
2024/01/25 04:45:00;;;;;;;68.43;10.07;;;;;;;;;;5016629;28;20100;-61
2024/01/25 04:47:26;;;;;;;70.65;11.10;;;;;;;;;;5021105;28;20034;-59
2024/01/25 04:49:52;;;;;;;80.57;12.50;;;;;;;;;;5014530;28;20033;-58
2024/01/25 04:52:18;;;;;;;70.90;9.95;;;;;;;;;;5023847;28;20030;-57
2024/01/25 04:54:44;;;;;;;75.18;10.25;;;;;;;;;;5015078;28;20026;-59
2024/01/25 04:57:10;;;;;;;67.72;10.82;;;;;;;;;;5023175;28;20112;-58
2024/01/25 04:59:36;;;;;;;84.57;12.40;;;;;;;;;;5015784;28;20037;-60
2024/01/25 05:02:02;;;;;;;63.22;9.80;;;;;;;;;;5017872;28;20029;-59
2024/01/25 05:04:30;;;;;;;66.45;8.90;;;;;;;;;;5023560;28;20040;-60
2024/01/25 05:06:56;;;;;;;51.55;9.13;;;;;;;;;;5014901;28;20017;-61
2024/01/25 05:09:22;;;;;;;81.70;10.18;;;;;;;;;;5015652;28;20476;-59
2024/01/25 05:11:48;;;;;;;67.75;9.35;;;;;;;;;;5019133;28;20133;-60
2024/01/25 05:14:14;;;;;;;90.53;10.82;;;;;;;;;;5017772;28;20045;-61
2024/01/25 05:16:40;;;;;;;82.10;10.77;;;;;;;;;;5014033;28;20407;-61
2024/01/25 05:19:06;;;;;;;77.35;10.82;;;;;;;;;;5015762;28;20143;-61
2024/01/25 05:21:32;;;;;;;72.88;10.20;;;;;;;;;;5018698;28;20036;-57
2024/01/25 05:23:58;;;;;;;88.10;10.35;;;;;;;;;;5014577;28;20041;-61
2024/01/25 05:26:24;;;;;;;84.20;9.80;;;;;;;;;;5015691;28;20025;-58
2024/01/25 05:28:50;;;;;;;64.75;11.50;;;;;;;;;;5016750;28;20038;-58
2024/01/25 05:31:16;;;;;;;78.78;10.18;;;;;;;;;;5024391;28;20033;-56
2024/01/25 05:33:42;;;;;;;98.13;11.68;;;;;;;;;;5018392;28;20032;-57
2024/01/25 05:36:09;;;;;;;77.35;11.15;;;;;;;;;;5019553;28;20060;-59
2024/01/25 05:38:35;;;;;;;86.80;12.25;;;;;;;;;;5017849;28;20061;-61
2024/01/25 05:41:02;;;;;;;68.35;9.55;;;;;;;;;;5015109;28;20030;-59
2024/01/25 05:43:28;;;;;;;60.63;9.73;;;;;;;;;;5018293;28;20476;-61
2024/01/25 05:45:54;;;;;;;80.90;10.30;;;;;;;;;;5019592;28;20030;-59
2024/01/25 05:48:19;;;;;;;72.32;9.43;;;;;;;;;;5021598;28;20025;-60
2024/01/25 05:50:45;;;;;;;73.13;10.63;;;;;;;;;;5015029;28;20021;-60
2024/01/25 05:53:12;;;;;;;82.80;11.75;;;;;;;;;;5018266;28;20401;-56
2024/01/25 05:55:38;;;;;;;79.47;11.05;;;;;;;;;;5024188;28;20026;-59
2024/01/25 05:58:04;;;;;;;60.17;8.57;;;;;;;;;;5034399;28;20026;-60
2024/01/25 06:00:30;;;;;;;59.53;9.38;;;;;;;;;;5020647;28;20053;-60
2024/01/25 06:02:55;;;;;;;75.95;10.40;;;;;;;;;;5026723;28;20492;-59
2024/01/25 06:05:21;;;;;;;75.38;10.07;;;;;;;;;;5020074;28;20036;-59
2024/01/25 06:07:49;;;;;;;63.13;9.25;;;;;;;;;;5018101;28;20036;-58
2024/01/25 06:10:15;;;;;;;74.88;11.15;;;;;;;;;;5022296;28;20069;-60
2024/01/25 06:12:41;;;;;;;76.63;10.18;;;;;;;;;;5017295;28;20122;-58
2024/01/25 06:15:07;;;;;;;84.85;10.57;;;;;;;;;;5018793;28;20109;-59
2024/01/25 06:17:33;;;;;;;64.47;9.63;;;;;;;;;;5022715;28;20087;-62
2024/01/25 06:19:59;;;;;;;75.80;13.85;;;;;;;;;;5016588;28;20080;-58
2024/01/25 06:22:25;;;;;;;62.03;9.20;;;;;;;;;;5021220;28;20041;-59
2024/01/25 06:24:51;;;;;;;61.55;8.07;;;;;;;;;;5012214;28;20046;-60
2024/01/25 06:27:17;;;;;;;51.78;8.00;;;;;;;;;;5027363;28;20029;-58
2024/01/25 06:29:43;;;;;;;58.38;8.93;;;;;;;;;;5018817;28;20056;-57
2024/01/25 06:32:10;;;;;;;71.53;12.15;;;;;;;;;;5020904;28;20040;-59
2024/01/25 06:34:36;;;;;;;58.28;10.05;;;;;;;;;;5014752;28;20092;-57
2024/01/25 06:37:02;;;;;;;77.07;10.57;;;;;;;;;;5018379;28;20108;-61
2024/01/25 06:39:28;;;;;;;69.68;11.43;;;;;;;;;;5015968;28;20423;-60
2024/01/25 06:41:54;;;;;;;65.00;8.70;;;;;;;;;;5012595;28;20464;-60
2024/01/25 06:44:20;;;;;;;73.38;10.85;;;;;;;;;;5014138;28;20068;-59
2024/01/25 06:46:46;;;;;;;52.20;9.38;;;;;;;;;;5018654;28;20014;-59
2024/01/25 06:49:12;;;;;;;74.65;10.75;;;;;;;;;;5011719;28;20488;-57
2024/01/25 06:51:38;;;;;;;71.13;9.70;;;;;;;;;;5016401;28;20033;-58
2024/01/25 06:54:04;;;;;;;75.75;10.43;;;;;;;;;;5021240;28;20723;-59
2024/01/25 06:56:31;;;;;;;71.28;10.40;;;;;;;;;;5018767;28;20030;-59
2024/01/25 06:58:57;;;;;;;88.55;12.70;;;;;;;;;;5018775;28;20053;-57
2024/01/25 07:01:24;;;;;;;88.15;9.35;;;;;;;;;;5012738;28;21815;-59
2024/01/25 07:03:50;;;;;;;67.72;9.98;;;;;;;;;;5011198;28;20484;-57
2024/01/25 07:06:17;;;;;;;68.32;9.38;;;;;;;;;;5019918;28;20034;-58
2024/01/25 07:08:43;;;;;;;77.45;9.95;;;;;;;;;;5016543;28;20025;-59
2024/01/25 07:11:09;;;;;;;91.68;9.10;;;;;;;;;;5010873;28;20464;-59
2024/01/25 07:13:35;;;;;;;68.28;10.27;;;;;;;;;;5009007;28;20414;-59
2024/01/25 07:16:01;;;;;;;80.45;9.68;;;;;;;;;;5011535;28;20113;-56
2024/01/25 07:18:27;;;;;;;86.75;9.75;;;;;;;;;;5009236;28;20034;-58
2024/01/25 07:20:53;;;;;;;83.97;10.07;;;;;;;;;;5016998;28;20030;-58
2024/01/25 07:23:19;;;;;;;75.53;10.05;;;;;;;;;;5012954;28;20041;-61
2024/01/25 07:25:45;;;;;;;68.75;8.73;;;;;;;;;;5003690;28;20080;-59
2024/01/25 07:28:11;;;;;;;58.55;8.88;;;;;;;;;;5003386;28;20064;-57
2024/01/25 07:30:37;;;;;;;41.53;8.00;;;;;;;;;;5009806;28;20617;-60
2024/01/25 07:33:03;;;;;;;48.95;7.20;;;;;;;;;;5013291;28;20068;-59
2024/01/25 07:35:29;;;;;;;66.50;9.73;;;;;;;;;;5012649;28;20026;-58
2024/01/25 07:37:55;;;;;;;53.38;8.45;;;;;;;;;;5008866;28;20712;-58
2024/01/25 07:40:20;;;;;;;48.88;8.45;;;;;;;;;;5010915;28;20025;-56
2024/01/25 07:42:47;;;;;;;51.47;7.93;;;;;;;;;;5009953;28;20053;-56
2024/01/25 07:45:13;;;;;;;62.00;9.93;;;;;;;;;;5016538;28;20112;-58
2024/01/25 07:47:41;;;;;;;76.38;11.35;;;;;;;;;;5011597;28;20034;-59
2024/01/25 07:50:08;;;;;;;72.32;10.77;;;;;;;;;;5009940;28;20502;-59
2024/01/25 07:52:34;;;;;;;59.35;8.93;;;;;;;;;;5021974;28;20033;-56
2024/01/25 07:55:00;;;;;;;71.03;11.05;;;;;;;;;;5013517;28;20477;-56
2024/01/25 07:57:26;;;;;;;64.70;10.60;;;;;;;;;;5016543;28;20492;-58
2024/01/25 07:59:52;;;;;;;57.67;9.98;;;;;;;;;;5009297;28;20076;-58
2024/01/25 08:02:19;;;;;;;68.82;10.55;;;;;;;;;;5009545;28;20041;-58
2024/01/25 08:04:45;;;;;;;68.63;9.70;;;;;;;;;;5012460;28;20030;-58
2024/01/25 08:07:11;;;;;;;75.72;10.60;;;;;;;;;;5015097;28;20033;-60
2024/01/25 08:09:37;;;;;;;62.75;10.55;;;;;;;;;;5015229;28;20036;-59
2024/01/25 08:12:03;;;;;;;66.55;11.88;;;;;;;;;;5015115;28;20049;-56
2024/01/25 08:14:29;;;;;;;58.15;11.15;;;;;;;;;;5010472;28;20018;-56
2024/01/25 08:16:55;;;;;;;70.93;11.52;;;;;;;;;;5008434;28;20037;-58
2024/01/25 08:19:21;;;;;;;74.70;12.52;;;;;;;;;;5009938;28;20050;-60
2024/01/25 08:21:47;;;;;;;71.70;12.55;;;;;;;;;;5011381;28;20068;-57
2024/01/25 08:24:13;;;;;;;71.20;12.60;;;;;;;;;;5021408;28;20025;-55
2024/01/25 08:26:39;;;;;;;92.78;13.65;;;;;;;;;;5013095;28;20030;-57
2024/01/25 08:29:05;;;;;;;96.20;16.23;;;;;;;;;;5026834;28;20061;-55
2024/01/25 08:31:31;;;;;;;77.20;15.27;;;;;;;;;;5010384;28;20072;-57
2024/01/25 08:34:00;;;;;;;92.90;13.85;;;;;;;;;;5005383;28;20102;-56
2024/01/25 08:36:26;;;;;;;70.25;13.10;;;;;;;;;;5006104;28;20073;-60
2024/01/25 08:38:52;;;;;;;58.47;12.93;;;;;;;;;;5003721;28;20121;-58
2024/01/25 08:41:18;;;;;;;90.80;15.23;;;;;;;;;;5007257;28;20064;-58
2024/01/25 08:43:44;;;;;;;70.00;14.38;;;;;;;;;;5004189;28;20034;-56
2024/01/25 08:46:13;;;;;;;82.47;15.88;;;;;;;;;;5003394;28;20026;-56
2024/01/25 08:48:39;;;;;;;92.53;14.85;;;;;;;;;;5003773;28;20029;-58
2024/01/25 08:51:05;;;;;;;86.07;16.05;;;;;;;;;;5004230;28;20130;-58
2024/01/25 08:53:31;;;;;;;77.47;16.70;;;;;;;;;;5002836;28;20285;-60
2024/01/25 08:55:57;;;;;;;91.80;15.50;;;;;;;;;;5007824;28;20046;-59
2024/01/25 08:58:23;;;;;;;89.00;13.95;;;;;;;;;;5008677;28;20029;-59
2024/01/25 09:00:49;;;;;;;79.57;15.70;;;;;;;;;;5008326;28;20034;-57
2024/01/25 09:03:15;;;;;;;72.97;14.23;;;;;;;;;;5005050;28;20124;-58
2024/01/25 09:05:44;;;;;;;74.85;15.25;;;;;;;;;;5006248;28;20665;-59
2024/01/25 09:08:11;;;;;;;76.45;14.88;;;;;;;;;;5006124;28;20030;-60
2024/01/25 09:10:37;;;;;;;69.00;13.00;;;;;;;;;;5004143;28;20038;-60
2024/01/25 09:13:03;;;;;;;72.88;15.93;;;;;;;;;;5010492;28;20062;-54
2024/01/25 09:15:29;;;;;;;89.72;15.68;;;;;;;;;;5010992;28;20068;-58
2024/01/25 09:17:55;;;;;;;70.63;13.18;;;;;;;;;;5011257;28;20044;-59
2024/01/25 09:20:21;;;;;;;61.70;14.18;;;;;;;;;;5010597;28;20117;-57
2024/01/25 09:22:47;;;;;;;68.57;13.38;;;;;;;;;;5010656;28;20029;-59
2024/01/25 09:25:13;;;;;;;78.03;14.82;;;;;;;;;;5008816;28;20419;-59
2024/01/25 09:27:39;;;;;;;84.30;16.55;;;;;;;;;;5003836;28;20181;-58
2024/01/25 09:30:06;;;;;;;90.43;15.65;;;;;;;;;;5003815;28;20054;-59
2024/01/25 09:32:32;;;;;;;93.88;15.23;;;;;;;;;;5005838;28;20060;-59
2024/01/25 09:34:58;;;;;;;81.70;15.00;;;;;;;;;;5005133;28;20459;-58
2024/01/25 09:37:24;;;;;;;77.78;13.77;;;;;;;;;;5004486;28;20026;-60
2024/01/25 09:39:54;;;;;;;70.45;14.60;;;;;;;;;;5009300;28;21575;-57
2024/01/25 09:42:20;;;;;;;60.95;13.10;;;;;;;;;;5009415;28;20033;-57
2024/01/25 09:44:46;;;;;;;64.50;15.23;;;;;;;;;;5009228;28;20030;-59
2024/01/25 09:47:13;;;;;;;97.78;14.43;;;;;;;;;;5011249;28;20034;-60
2024/01/25 09:49:39;;;;;;;70.72;13.48;;;;;;;;;;5010811;28;20035;-57
2024/01/25 09:52:06;;;;;;;79.88;15.18;;;;;;;;;;5013148;28;20041;-58
2024/01/25 09:54:34;;;;;;;65.18;14.50;;;;;;;;;;5004853;28;20526;-59
2024/01/25 09:57:01;;;;;;;85.47;16.23;;;;;;;;;;5007411;28;20037;-56
2024/01/25 09:59:27;;;;;;;61.78;14.68;;;;;;;;;;5003240;28;20384;-56
2024/01/25 10:01:53;;;;;;;61.90;14.05;;;;;;;;;;5005040;28;20108;-60
2024/01/25 10:04:21;;;;;;;75.55;15.82;;;;;;;;;;5005852;28;20045;-58
2024/01/25 10:06:47;;;;;;;87.05;15.20;;;;;;;;;;5010793;28;20030;-57
2024/01/25 10:09:14;;;;;;;66.50;14.65;;;;;;;;;;5010268;28;20445;-57
2024/01/25 10:11:40;;;;;;;68.68;15.75;;;;;;;;;;5010283;28;20017;-59
2024/01/25 10:14:08;;;;;;;71.82;12.95;;;;;;;;;;5006927;28;20029;-59
2024/01/25 10:16:34;;;;;;;58.20;13.27;;;;;;;;;;4998426;28;20057;-57
2024/01/25 10:19:02;;;;;;;68.20;15.45;;;;;;;;;;5005918;28;20018;-58
2024/01/25 10:21:29;;;;;;;77.82;13.40;;;;;;;;;;5003116;28;20034;-57
2024/01/25 10:23:58;;;;;;;49.15;13.23;;;;;;;;;;5008762;28;20110;-59
2024/01/25 10:26:26;;;;;;;61.63;13.25;;;;;;;;;;5000770;28;20037;-58
2024/01/25 10:28:55;;;;;;;61.55;15.15;;;;;;;;;;5004587;28;20030;-57
2024/01/25 10:31:27;;;;;;;65.07;12.88;;;;;;;;;;5003270;28;20034;-58
2024/01/25 10:33:53;;;;;;;61.67;12.70;;;;;;;;;;5005516;28;20045;-56
2024/01/25 10:36:21;;;;;;;55.92;14.00;;;;;;;;;;5007290;28;20392;-58
2024/01/25 10:38:49;;;;;;;73.10;15.88;;;;;;;;;;5011200;28;20454;-59
2024/01/25 10:41:15;;;;;;;61.17;13.23;;;;;;;;;;5008778;28;20034;-59
2024/01/25 10:43:41;;;;;;;55.90;12.63;;;;;;;;;;5010279;28;20030;-59
2024/01/25 10:46:08;;;;;;;69.80;14.55;;;;;;;;;;5012393;28;20783;-59
2024/01/25 10:48:34;;;;;;;55.45;12.70;;;;;;;;;;5010533;28;20033;-55
2024/01/25 10:51:02;;;;;;;71.80;14.95;;;;;;;;;;5008090;28;20034;-57
2024/01/25 10:53:30;;;;;;;77.03;15.18;;;;;;;;;;5006002;28;20146;-59
2024/01/25 10:55:56;;;;;;;71.38;13.13;;;;;;;;;;5007886;28;20033;-56
2024/01/25 10:58:22;;;;;;;52.65;12.75;;;;;;;;;;5010703;28;20120;-58
2024/01/25 11:00:53;;;;;;;51.30;12.82;;;;;;;;;;5009033;28;20076;-54
2024/01/25 11:03:20;;;;;;;61.55;14.07;;;;;;;;;;5010111;28;20040;-58
2024/01/25 11:05:47;;;;;;;74.25;13.88;;;;;;;;;;5008301;28;20049;-58
2024/01/25 11:08:20;;;;;;;63.40;13.50;;;;;;;;;;5003488;28;20558;-59
2024/01/25 11:10:50;;;;;;;63.78;13.07;;;;;;;;;;5003202;28;20583;-57
2024/01/25 11:13:16;;;;;;;65.20;13.35;;;;;;;;;;5006742;28;20022;-60
2024/01/25 11:15:42;;;;;;;50.70;12.70;;;;;;;;;;5007499;28;20034;-59
2024/01/25 11:18:09;;;;;;;62.50;14.07;;;;;;;;;;5006476;28;20058;-60
2024/01/25 11:20:40;;;;;;;60.03;11.88;;;;;;;;;;5007479;28;20029;-59
2024/01/25 11:23:09;;;;;;;55.17;12.35;;;;;;;;;;5007233;28;20036;-58
2024/01/25 11:25:37;;;;;;;60.33;12.40;;;;;;;;;;5003851;28;20109;-59
2024/01/25 11:28:04;;;;;;;52.38;11.90;;;;;;;;;;5002135;28;20029;-60
2024/01/25 11:30:31;;;;;;;68.20;11.18;;;;;;;;;;5005231;28;20484;-57
2024/01/25 11:32:57;;;;;;;50.30;10.55;;;;;;;;;;5006673;28;20037;-60
2024/01/25 11:35:23;;;;;;;54.05;11.35;;;;;;;;;;5006683;28;20033;-57
2024/01/25 11:37:51;;;;;;;62.55;12.75;;;;;;;;;;5006755;28;20104;-58
2024/01/25 11:40:18;;;;;;;50.50;9.77;;;;;;;;;;5006349;28;20101;-60
2024/01/25 11:42:45;;;;;;;53.65;10.45;;;;;;;;;;5006339;28;20033;-59
2024/01/25 11:45:11;;;;;;;50.03;9.82;;;;;;;;;;5006934;28;20710;-57
2024/01/25 11:47:38;;;;;;;62.28;10.93;;;;;;;;;;5004043;28;20040;-59
2024/01/25 11:50:04;;;;;;;45.65;9.93;;;;;;;;;;5009405;28;20045;-59
2024/01/25 11:52:33;;;;;;;70.85;11.77;;;;;;;;;;5005465;28;20036;-59
2024/01/25 11:55:03;;;;;;;61.67;9.90;;;;;;;;;;5006615;28;20635;-59
2024/01/25 11:57:30;;;;;;;46.88;10.15;;;;;;;;;;5004318;28;20089;-59
2024/01/25 11:59:56;;;;;;;48.92;8.77;;;;;;;;;;5001858;28;20107;-57
2024/01/25 12:02:22;;;;;;;50.00;7.57;;;;;;;;;;5007448;28;20033;-57
2024/01/25 12:04:48;;;;;;;44.72;8.73;;;;;;;;;;5007081;28;20340;-58
2024/01/25 12:07:15;;;;;;;45.63;7.47;;;;;;;;;;5005854;28;20280;-58
2024/01/25 12:09:41;;;;;;;47.72;9.23;;;;;;;;;;5012014;28;20006;-57
2024/01/25 12:12:07;;;;;;;37.95;7.38;;;;;;;;;;5008448;28;20097;-58
2024/01/25 12:14:35;;;;;;;47.97;7.13;;;;;;;;;;5009807;28;20428;-57
2024/01/25 12:17:01;;;;;;;48.00;8.88;;;;;;;;;;5007936;28;20068;-59
2024/01/25 12:19:29;;;;;;;40.13;8.50;;;;;;;;;;5010108;28;20052;-58
2024/01/25 12:21:56;;;;;;;58.30;9.18;;;;;;;;;;5008616;28;20022;-58
2024/01/25 12:24:22;;;;;;;48.47;6.95;;;;;;;;;;5008718;28;20187;-59
2024/01/25 12:26:48;;;;;;;48.72;7.93;;;;;;;;;;5009335;28;20101;-57
2024/01/25 12:29:14;;;;;;;38.35;7.32;;;;;;;;;;5009967;28;20030;-59
2024/01/25 12:31:40;;;;;;;40.17;7.10;;;;;;;;;;5006896;28;21484;-59
2024/01/25 12:34:13;;;;;;;35.60;7.38;;;;;;;;;;5007906;28;20038;-58
2024/01/25 12:36:39;;;;;;;42.30;8.15;;;;;;;;;;5006041;28;20026;-59
2024/01/25 12:39:06;;;;;;;53.38;9.35;;;;;;;;;;5005054;28;20045;-60
2024/01/25 12:41:32;;;;;;;48.40;9.63;;;;;;;;;;5002526;28;20025;-58
2024/01/25 12:43:58;;;;;;;49.83;9.85;;;;;;;;;;5006724;28;20147;-58
2024/01/25 12:46:24;;;;;;;41.95;8.38;;;;;;;;;;5006798;28;20033;-58
2024/01/25 12:48:54;;;;;;;57.67;9.88;;;;;;;;;;5011104;28;20108;-55
2024/01/25 12:51:20;;;;;;;51.45;9.52;;;;;;;;;;5013810;28;20054;-59
2024/01/25 12:53:47;;;;;;;43.67;8.10;;;;;;;;;;5006885;28;20771;-59
2024/01/25 12:56:13;;;;;;;60.60;9.25;;;;;;;;;;5008604;28;20091;-59
2024/01/25 12:58:39;;;;;;;54.88;8.85;;;;;;;;;;5002940;28;20026;-58
2024/01/25 13:01:05;;;;;;;41.45;7.10;;;;;;;;;;5007815;28;20026;-58
2024/01/25 13:03:31;;;;;;;50.65;7.32;;;;;;;;;;5006979;28;20033;-56
2024/01/25 13:05:57;;;;;;;40.13;7.50;;;;;;;;;;5009647;28;20041;-56
2024/01/25 13:08:23;;;;;;;38.63;5.93;;;;;;;;;;5013063;28;20014;-59
2024/01/25 13:10:49;;;;;;;42.78;6.78;;;;;;;;;;5013048;28;20040;-57
2024/01/25 13:13:15;;;;;;;43.80;7.88;;;;;;;;;;5011408;28;20037;-58
2024/01/25 13:15:41;;;;;;;33.17;6.68;;;;;;;;;;5011951;28;20057;-55
2024/01/25 13:18:07;;;;;;;45.33;8.00;;;;;;;;;;5011681;28;20058;-59
2024/01/25 13:20:33;;;;;;;49.00;8.13;;;;;;;;;;5011224;28;20034;-57
2024/01/25 13:22:59;;;;;;;42.85;8.48;;;;;;;;;;5020164;28;20087;-57
2024/01/25 13:25:25;;;;;;;37.80;7.20;;;;;;;;;;5013142;28;20030;-58
2024/01/25 13:27:51;;;;;;;43.97;6.60;;;;;;;;;;5013385;28;20037;-60
2024/01/25 13:30:17;;;;;;;33.25;6.72;;;;;;;;;;5012173;28;20022;-56
2024/01/25 13:32:43;;;;;;;37.10;6.20;;;;;;;;;;5014556;28;20095;-58
2024/01/25 13:35:09;;;;;;;50.38;7.60;;;;;;;;;;5015972;28;20030;-58
2024/01/25 13:37:35;;;;;;;34.78;6.63;;;;;;;;;;5016228;28;20098;-58
2024/01/25 13:40:01;;;;;;;34.20;6.80;;;;;;;;;;5009883;28;20033;-58
2024/01/25 13:42:27;;;;;;;37.53;6.13;;;;;;;;;;5012929;28;20093;-58
2024/01/25 13:44:53;;;;;;;44.53;6.75;;;;;;;;;;5015137;28;20037;-59
2024/01/25 13:47:19;;;;;;;45.13;7.20;;;;;;;;;;5012768;28;20072;-58
2024/01/25 13:49:45;;;;;;;43.88;6.85;;;;;;;;;;5013628;28;20029;-56
2024/01/25 13:52:18;;;;;;;36.75;6.95;;;;;;;;;;5007545;28;20030;-58
2024/01/25 13:54:44;;;;;;;30.35;6.70;;;;;;;;;;5007617;28;20029;-58
2024/01/25 13:57:09;;;;;;;40.83;7.07;;;;;;;;;;5011840;28;20030;-59
2024/01/25 13:59:35;;;;;;;38.80;6.60;;;;;;;;;;5011490;28;20498;-59
2024/01/25 14:02:01;;;;;;;41.60;7.07;;;;;;;;;;5006932;28;20025;-55
2024/01/25 14:04:27;;;;;;;42.08;6.50;;;;;;;;;;5011734;28;20611;-57
2024/01/25 14:06:53;;;;;;;37.40;6.40;;;;;;;;;;5010886;28;20141;-59
2024/01/25 14:09:19;;;;;;;33.78;5.78;;;;;;;;;;5011788;28;20496;-58
2024/01/25 14:11:45;;;;;;;43.78;6.75;;;;;;;;;;5011594;28;20109;-58
2024/01/25 14:14:11;;;;;;;42.35;5.80;;;;;;;;;;5014384;28;20105;-58
2024/01/25 14:16:37;;;;;;;30.52;6.50;;;;;;;;;;5010633;28;20030;-58
2024/01/25 14:19:03;;;;;;;33.83;6.90;;;;;;;;;;5014380;28;20039;-58